sensor_id;sensor_type;location;lat;lon;timestamp;P1;durP1;ratioP1;P2;durP2;ratioP2
17987;SDS011;9119;50.932;5.342;2023-04-03T00:02:07;12.80;;;6.43;;
17987;SDS011;9119;50.932;5.342;2023-04-03T00:04:33;12.53;;;6.07;;
17987;SDS011;9119;50.932;5.342;2023-04-03T00:06:59;12.63;;;6.40;;
17987;SDS011;9119;50.932;5.342;2023-04-03T00:09:25;10.53;;;5.93;;
17987;SDS011;9119;50.932;5.342;2023-04-03T00:11:51;14.07;;;7.23;;
17987;SDS011;9119;50.932;5.342;2023-04-03T00:14:17;11.30;;;6.03;;
17987;SDS011;9119;50.932;5.342;2023-04-03T00:16:42;17.17;;;6.80;;
17987;SDS011;9119;50.932;5.342;2023-04-03T00:19:08;11.33;;;6.30;;
17987;SDS011;9119;50.932;5.342;2023-04-03T00:21:36;14.50;;;6.17;;
17987;SDS011;9119;50.932;5.342;2023-04-03T00:24:02;12.17;;;6.73;;
17987;SDS011;9119;50.932;5.342;2023-04-03T00:26:28;15.30;;;6.17;;
17987;SDS011;9119;50.932;5.342;2023-04-03T00:28:54;13.27;;;5.93;;
17987;SDS011;9119;50.932;5.342;2023-04-03T00:31:21;12.13;;;5.80;;
17987;SDS011;9119;50.932;5.342;2023-04-03T00:33:46;10.73;;;5.83;;
17987;SDS011;9119;50.932;5.342;2023-04-03T00:36:12;11.40;;;6.03;;
17987;SDS011;9119;50.932;5.342;2023-04-03T00:38:38;13.03;;;6.13;;
17987;SDS011;9119;50.932;5.342;2023-04-03T00:41:04;15.73;;;5.80;;
17987;SDS011;9119;50.932;5.342;2023-04-03T00:43:31;13.10;;;6.20;;
17987;SDS011;9119;50.932;5.342;2023-04-03T00:45:57;12.73;;;5.40;;
17987;SDS011;9119;50.932;5.342;2023-04-03T00:48:28;8.63;;;5.80;;
17987;SDS011;9119;50.932;5.342;2023-04-03T00:51:01;11.93;;;5.93;;
17987;SDS011;9119;50.932;5.342;2023-04-03T00:53:30;12.03;;;6.03;;
17987;SDS011;9119;50.932;5.342;2023-04-03T00:56:05;12.60;;;5.90;;
17987;SDS011;9119;50.932;5.342;2023-04-03T00:58:36;14.77;;;6.07;;
17987;SDS011;9119;50.932;5.342;2023-04-03T01:01:05;14.73;;;5.57;;
17987;SDS011;9119;50.932;5.342;2023-04-03T01:03:33;12.53;;;5.87;;
17987;SDS011;9119;50.932;5.342;2023-04-03T01:05:59;11.23;;;6.43;;
17987;SDS011;9119;50.932;5.342;2023-04-03T01:08:25;12.43;;;5.47;;
17987;SDS011;9119;50.932;5.342;2023-04-03T01:10:51;16.83;;;6.40;;
17987;SDS011;9119;50.932;5.342;2023-04-03T01:13:19;8.13;;;5.33;;
17987;SDS011;9119;50.932;5.342;2023-04-03T01:15:48;11.97;;;6.00;;
17987;SDS011;9119;50.932;5.342;2023-04-03T01:18:14;12.33;;;5.57;;
17987;SDS011;9119;50.932;5.342;2023-04-03T01:23:34;10.80;;;5.63;;
17987;SDS011;9119;50.932;5.342;2023-04-03T01:26:08;13.47;;;6.20;;
17987;SDS011;9119;50.932;5.342;2023-04-03T01:28:36;11.83;;;6.60;;
17987;SDS011;9119;50.932;5.342;2023-04-03T01:34:05;12.70;;;5.97;;
17987;SDS011;9119;50.932;5.342;2023-04-03T01:36:31;11.17;;;6.27;;
17987;SDS011;9119;50.932;5.342;2023-04-03T01:38:57;12.37;;;6.30;;
17987;SDS011;9119;50.932;5.342;2023-04-03T01:41:24;11.47;;;6.13;;
17987;SDS011;9119;50.932;5.342;2023-04-03T01:43:51;14.57;;;6.77;;
17987;SDS011;9119;50.932;5.342;2023-04-03T01:46:17;12.10;;;6.53;;
17987;SDS011;9119;50.932;5.342;2023-04-03T01:48:44;12.77;;;6.40;;
17987;SDS011;9119;50.932;5.342;2023-04-03T01:51:10;12.27;;;6.30;;
17987;SDS011;9119;50.932;5.342;2023-04-03T01:53:36;12.53;;;7.07;;
17987;SDS011;9119;50.932;5.342;2023-04-03T01:56:02;12.93;;;7.27;;
17987;SDS011;9119;50.932;5.342;2023-04-03T01:58:28;17.23;;;6.80;;
17987;SDS011;9119;50.932;5.342;2023-04-03T02:00:53;16.23;;;6.57;;
17987;SDS011;9119;50.932;5.342;2023-04-03T02:03:19;13.07;;;6.70;;
17987;SDS011;9119;50.932;5.342;2023-04-03T02:05:45;11.73;;;6.53;;
17987;SDS011;9119;50.932;5.342;2023-04-03T02:08:11;11.30;;;6.37;;
17987;SDS011;9119;50.932;5.342;2023-04-03T02:10:38;10.60;;;6.60;;
17987;SDS011;9119;50.932;5.342;2023-04-03T02:13:03;14.57;;;6.07;;
17987;SDS011;9119;50.932;5.342;2023-04-03T02:15:30;14.90;;;6.27;;
17987;SDS011;9119;50.932;5.342;2023-04-03T02:17:55;11.93;;;6.70;;
17987;SDS011;9119;50.932;5.342;2023-04-03T02:20:21;11.33;;;6.47;;
17987;SDS011;9119;50.932;5.342;2023-04-03T02:22:47;10.67;;;6.27;;
17987;SDS011;9119;50.932;5.342;2023-04-03T02:25:13;9.70;;;5.73;;
17987;SDS011;9119;50.932;5.342;2023-04-03T02:27:39;10.93;;;6.10;;
17987;SDS011;9119;50.932;5.342;2023-04-03T02:30:05;10.77;;;5.80;;
17987;SDS011;9119;50.932;5.342;2023-04-03T02:32:31;13.70;;;6.47;;
17987;SDS011;9119;50.932;5.342;2023-04-03T02:34:57;13.17;;;7.20;;
17987;SDS011;9119;50.932;5.342;2023-04-03T02:37:23;16.50;;;7.07;;
17987;SDS011;9119;50.932;5.342;2023-04-03T02:39:49;11.37;;;6.50;;
17987;SDS011;9119;50.932;5.342;2023-04-03T02:42:15;16.73;;;7.13;;
17987;SDS011;9119;50.932;5.342;2023-04-03T02:44:41;12.70;;;7.10;;
17987;SDS011;9119;50.932;5.342;2023-04-03T02:47:06;15.53;;;7.00;;
17987;SDS011;9119;50.932;5.342;2023-04-03T02:49:32;11.73;;;7.27;;
17987;SDS011;9119;50.932;5.342;2023-04-03T02:51:58;14.03;;;7.03;;
17987;SDS011;9119;50.932;5.342;2023-04-03T02:54:23;14.10;;;7.10;;
17987;SDS011;9119;50.932;5.342;2023-04-03T02:56:52;14.13;;;7.30;;
17987;SDS011;9119;50.932;5.342;2023-04-03T02:59:18;12.70;;;7.53;;
17987;SDS011;9119;50.932;5.342;2023-04-03T03:01:44;14.93;;;7.07;;
17987;SDS011;9119;50.932;5.342;2023-04-03T03:04:09;11.90;;;7.67;;
17987;SDS011;9119;50.932;5.342;2023-04-03T03:06:35;12.07;;;7.17;;
17987;SDS011;9119;50.932;5.342;2023-04-03T03:09:01;15.53;;;7.73;;
17987;SDS011;9119;50.932;5.342;2023-04-03T03:11:26;13.53;;;8.30;;
17987;SDS011;9119;50.932;5.342;2023-04-03T03:13:52;15.83;;;8.30;;
17987;SDS011;9119;50.932;5.342;2023-04-03T03:16:18;15.97;;;8.27;;
17987;SDS011;9119;50.932;5.342;2023-04-03T03:18:43;12.33;;;8.07;;
17987;SDS011;9119;50.932;5.342;2023-04-03T03:21:09;15.87;;;8.63;;
17987;SDS011;9119;50.932;5.342;2023-04-03T03:23:35;14.43;;;8.87;;
17987;SDS011;9119;50.932;5.342;2023-04-03T03:26:02;16.50;;;8.73;;
17987;SDS011;9119;50.932;5.342;2023-04-03T03:28:30;14.23;;;8.93;;
17987;SDS011;9119;50.932;5.342;2023-04-03T03:30:56;17.57;;;9.03;;
17987;SDS011;9119;50.932;5.342;2023-04-03T03:33:22;18.93;;;9.97;;
17987;SDS011;9119;50.932;5.342;2023-04-03T03:35:49;16.60;;;8.90;;
17987;SDS011;9119;50.932;5.342;2023-04-03T03:38:14;15.43;;;9.53;;
17987;SDS011;9119;50.932;5.342;2023-04-03T03:40:40;22.00;;;8.97;;
17987;SDS011;9119;50.932;5.342;2023-04-03T03:43:06;17.43;;;8.73;;
17987;SDS011;9119;50.932;5.342;2023-04-03T03:45:32;13.70;;;9.30;;
17987;SDS011;9119;50.932;5.342;2023-04-03T03:47:57;18.90;;;9.10;;
17987;SDS011;9119;50.932;5.342;2023-04-03T03:50:23;16.77;;;9.10;;
17987;SDS011;9119;50.932;5.342;2023-04-03T03:52:49;16.00;;;8.77;;
17987;SDS011;9119;50.932;5.342;2023-04-03T03:55:15;16.47;;;8.97;;
17987;SDS011;9119;50.932;5.342;2023-04-03T03:57:41;17.07;;;8.77;;
17987;SDS011;9119;50.932;5.342;2023-04-03T04:00:06;17.20;;;9.07;;
17987;SDS011;9119;50.932;5.342;2023-04-03T04:02:33;15.70;;;9.17;;
17987;SDS011;9119;50.932;5.342;2023-04-03T04:04:59;15.30;;;9.13;;
17987;SDS011;9119;50.932;5.342;2023-04-03T04:07:25;25.63;;;9.47;;
17987;SDS011;9119;50.932;5.342;2023-04-03T04:09:53;13.60;;;8.80;;
17987;SDS011;9119;50.932;5.342;2023-04-03T04:12:19;16.50;;;9.23;;
17987;SDS011;9119;50.932;5.342;2023-04-03T04:14:45;27.97;;;9.43;;
17987;SDS011;9119;50.932;5.342;2023-04-03T04:17:11;23.47;;;10.10;;
17987;SDS011;9119;50.932;5.342;2023-04-03T04:19:40;16.60;;;9.60;;
17987;SDS011;9119;50.932;5.342;2023-04-03T04:22:06;15.83;;;9.60;;
17987;SDS011;9119;50.932;5.342;2023-04-03T04:24:32;15.20;;;9.40;;
17987;SDS011;9119;50.932;5.342;2023-04-03T04:26:58;15.43;;;9.80;;
17987;SDS011;9119;50.932;5.342;2023-04-03T04:29:23;17.30;;;9.07;;
17987;SDS011;9119;50.932;5.342;2023-04-03T04:31:49;16.73;;;10.53;;
17987;SDS011;9119;50.932;5.342;2023-04-03T04:34:16;17.43;;;10.00;;
17987;SDS011;9119;50.932;5.342;2023-04-03T04:36:42;19.03;;;9.77;;
17987;SDS011;9119;50.932;5.342;2023-04-03T04:39:07;23.37;;;11.27;;
17987;SDS011;9119;50.932;5.342;2023-04-03T04:41:33;19.73;;;10.07;;
17987;SDS011;9119;50.932;5.342;2023-04-03T04:43:59;20.33;;;11.00;;
17987;SDS011;9119;50.932;5.342;2023-04-03T04:46:25;19.13;;;10.00;;
17987;SDS011;9119;50.932;5.342;2023-04-03T04:48:51;20.10;;;10.83;;
17987;SDS011;9119;50.932;5.342;2023-04-03T04:51:17;20.53;;;11.63;;
17987;SDS011;9119;50.932;5.342;2023-04-03T04:53:43;21.30;;;11.23;;
17987;SDS011;9119;50.932;5.342;2023-04-03T04:56:08;35.53;;;11.80;;
17987;SDS011;9119;50.932;5.342;2023-04-03T04:58:35;18.67;;;11.47;;
17987;SDS011;9119;50.932;5.342;2023-04-03T05:01:05;19.57;;;11.53;;
17987;SDS011;9119;50.932;5.342;2023-04-03T05:03:32;21.10;;;12.07;;
17987;SDS011;9119;50.932;5.342;2023-04-03T05:05:58;22.87;;;12.70;;
17987;SDS011;9119;50.932;5.342;2023-04-03T05:08:24;24.30;;;12.60;;
17987;SDS011;9119;50.932;5.342;2023-04-03T05:10:52;25.33;;;12.57;;
17987;SDS011;9119;50.932;5.342;2023-04-03T05:13:18;23.30;;;13.57;;
17987;SDS011;9119;50.932;5.342;2023-04-03T05:15:45;28.27;;;12.47;;
17987;SDS011;9119;50.932;5.342;2023-04-03T05:18:11;24.97;;;12.53;;
17987;SDS011;9119;50.932;5.342;2023-04-03T05:20:37;23.87;;;13.27;;
17987;SDS011;9119;50.932;5.342;2023-04-03T05:23:02;29.73;;;13.83;;
17987;SDS011;9119;50.932;5.342;2023-04-03T05:25:28;25.67;;;13.30;;
17987;SDS011;9119;50.932;5.342;2023-04-03T05:27:54;28.90;;;14.07;;
17987;SDS011;9119;50.932;5.342;2023-04-03T05:30:20;31.43;;;16.07;;
17987;SDS011;9119;50.932;5.342;2023-04-03T05:32:46;29.87;;;15.13;;
17987;SDS011;9119;50.932;5.342;2023-04-03T05:35:12;32.47;;;16.30;;
17987;SDS011;9119;50.932;5.342;2023-04-03T05:37:38;37.27;;;17.57;;
17987;SDS011;9119;50.932;5.342;2023-04-03T05:40:04;42.87;;;18.23;;
17987;SDS011;9119;50.932;5.342;2023-04-03T05:42:31;46.10;;;19.13;;
17987;SDS011;9119;50.932;5.342;2023-04-03T05:44:57;40.87;;;18.43;;
17987;SDS011;9119;50.932;5.342;2023-04-03T05:47:22;45.73;;;19.47;;
17987;SDS011;9119;50.932;5.342;2023-04-03T05:49:48;40.87;;;17.90;;
17987;SDS011;9119;50.932;5.342;2023-04-03T05:54:48;44.63;;;17.47;;
17987;SDS011;9119;50.932;5.342;2023-04-03T05:57:16;27.07;;;15.03;;
17987;SDS011;9119;50.932;5.342;2023-04-03T05:59:43;25.50;;;14.13;;
17987;SDS011;9119;50.932;5.342;2023-04-03T06:02:13;32.87;;;14.97;;
17987;SDS011;9119;50.932;5.342;2023-04-03T06:04:41;26.07;;;14.80;;
17987;SDS011;9119;50.932;5.342;2023-04-03T06:07:06;26.50;;;13.77;;
17987;SDS011;9119;50.932;5.342;2023-04-03T06:09:47;27.17;;;14.23;;
17987;SDS011;9119;50.932;5.342;2023-04-03T06:12:13;30.97;;;12.50;;
17987;SDS011;9119;50.932;5.342;2023-04-03T06:14:39;27.90;;;12.63;;
17987;SDS011;9119;50.932;5.342;2023-04-03T06:17:05;23.07;;;12.27;;
17987;SDS011;9119;50.932;5.342;2023-04-03T06:19:31;19.80;;;11.53;;
17987;SDS011;9119;50.932;5.342;2023-04-03T06:21:57;16.47;;;9.67;;
17987;SDS011;9119;50.932;5.342;2023-04-03T06:24:23;18.67;;;9.53;;
17987;SDS011;9119;50.932;5.342;2023-04-03T06:26:50;18.33;;;9.23;;
17987;SDS011;9119;50.932;5.342;2023-04-03T06:29:17;23.97;;;9.03;;
17987;SDS011;9119;50.932;5.342;2023-04-03T06:31:44;16.80;;;8.73;;
17987;SDS011;9119;50.932;5.342;2023-04-03T06:34:10;17.10;;;8.37;;
17987;SDS011;9119;50.932;5.342;2023-04-03T06:36:36;16.80;;;8.80;;
17987;SDS011;9119;50.932;5.342;2023-04-03T06:39:02;25.80;;;8.67;;
17987;SDS011;9119;50.932;5.342;2023-04-03T06:41:28;18.43;;;8.40;;
17987;SDS011;9119;50.932;5.342;2023-04-03T06:43:54;21.03;;;8.10;;
17987;SDS011;9119;50.932;5.342;2023-04-03T06:46:22;19.80;;;7.37;;
17987;SDS011;9119;50.932;5.342;2023-04-03T06:48:49;15.77;;;7.50;;
17987;SDS011;9119;50.932;5.342;2023-04-03T06:53:43;17.17;;;7.17;;
17987;SDS011;9119;50.932;5.342;2023-04-03T06:56:10;33.53;;;7.93;;
17987;SDS011;9119;50.932;5.342;2023-04-03T06:58:36;21.50;;;8.17;;
17987;SDS011;9119;50.932;5.342;2023-04-03T07:01:02;13.30;;;6.90;;
17987;SDS011;9119;50.932;5.342;2023-04-03T07:03:28;19.97;;;6.10;;
17987;SDS011;9119;50.932;5.342;2023-04-03T07:05:53;13.13;;;6.23;;
17987;SDS011;9119;50.932;5.342;2023-04-03T07:08:19;11.87;;;6.13;;
17987;SDS011;9119;50.932;5.342;2023-04-03T07:10:45;16.77;;;5.87;;
17987;SDS011;9119;50.932;5.342;2023-04-03T07:13:11;13.93;;;6.50;;
17987;SDS011;9119;50.932;5.342;2023-04-03T07:15:36;13.50;;;5.50;;
17987;SDS011;9119;50.932;5.342;2023-04-03T07:18:02;12.60;;;5.53;;
17987;SDS011;9119;50.932;5.342;2023-04-03T07:20:29;16.20;;;6.50;;
17987;SDS011;9119;50.932;5.342;2023-04-03T07:22:55;14.97;;;5.53;;
17987;SDS011;9119;50.932;5.342;2023-04-03T07:25:20;14.73;;;5.70;;
17987;SDS011;9119;50.932;5.342;2023-04-03T07:27:46;13.63;;;6.37;;
17987;SDS011;9119;50.932;5.342;2023-04-03T07:30:12;10.33;;;5.30;;
17987;SDS011;9119;50.932;5.342;2023-04-03T07:32:39;13.90;;;5.80;;
17987;SDS011;9119;50.932;5.342;2023-04-03T07:35:05;10.40;;;5.53;;
17987;SDS011;9119;50.932;5.342;2023-04-03T07:37:31;9.50;;;5.73;;
17987;SDS011;9119;50.932;5.342;2023-04-03T07:39:57;10.77;;;5.67;;
17987;SDS011;9119;50.932;5.342;2023-04-03T07:42:24;11.30;;;5.20;;
17987;SDS011;9119;50.932;5.342;2023-04-03T07:44:53;11.07;;;5.00;;
17987;SDS011;9119;50.932;5.342;2023-04-03T07:47:19;15.10;;;5.03;;
17987;SDS011;9119;50.932;5.342;2023-04-03T07:49:45;10.50;;;5.10;;
17987;SDS011;9119;50.932;5.342;2023-04-03T07:52:11;8.17;;;4.50;;
17987;SDS011;9119;50.932;5.342;2023-04-03T07:54:40;12.90;;;5.10;;
17987;SDS011;9119;50.932;5.342;2023-04-03T07:57:06;9.87;;;4.40;;
17987;SDS011;9119;50.932;5.342;2023-04-03T07:59:32;12.67;;;4.83;;
17987;SDS011;9119;50.932;5.342;2023-04-03T08:01:58;9.13;;;3.90;;
17987;SDS011;9119;50.932;5.342;2023-04-03T08:04:24;15.33;;;4.07;;
17987;SDS011;9119;50.932;5.342;2023-04-03T08:06:51;8.93;;;4.43;;
17987;SDS011;9119;50.932;5.342;2023-04-03T08:09:16;13.90;;;3.80;;
17987;SDS011;9119;50.932;5.342;2023-04-03T08:11:42;10.00;;;4.10;;
17987;SDS011;9119;50.932;5.342;2023-04-03T08:14:09;10.53;;;4.07;;
17987;SDS011;9119;50.932;5.342;2023-04-03T08:16:40;10.23;;;3.87;;
17987;SDS011;9119;50.932;5.342;2023-04-03T08:19:06;13.67;;;4.43;;
17987;SDS011;9119;50.932;5.342;2023-04-03T08:21:32;9.60;;;4.27;;
17987;SDS011;9119;50.932;5.342;2023-04-03T08:23:58;10.63;;;3.40;;
17987;SDS011;9119;50.932;5.342;2023-04-03T08:26:24;13.33;;;3.17;;
17987;SDS011;9119;50.932;5.342;2023-04-03T08:28:51;12.73;;;3.50;;
17987;SDS011;9119;50.932;5.342;2023-04-03T08:31:18;9.17;;;3.40;;
17987;SDS011;9119;50.932;5.342;2023-04-03T08:33:44;6.67;;;3.20;;
17987;SDS011;9119;50.932;5.342;2023-04-03T08:36:23;7.03;;;2.87;;
17987;SDS011;9119;50.932;5.342;2023-04-03T08:38:51;8.87;;;3.50;;
17987;SDS011;9119;50.932;5.342;2023-04-03T08:41:41;13.03;;;3.77;;
17987;SDS011;9119;50.932;5.342;2023-04-03T08:49:40;5.90;;;3.27;;
17987;SDS011;9119;50.932;5.342;2023-04-03T08:55:44;9.13;;;2.80;;
17987;SDS011;9119;50.932;5.342;2023-04-03T08:58:16;10.17;;;2.37;;
17987;SDS011;9119;50.932;5.342;2023-04-03T09:03:42;7.30;;;2.60;;
17987;SDS011;9119;50.932;5.342;2023-04-03T09:06:15;10.70;;;2.90;;
17987;SDS011;9119;50.932;5.342;2023-04-03T09:08:51;4.73;;;2.77;;
17987;SDS011;9119;50.932;5.342;2023-04-03T09:14:13;7.53;;;2.83;;
17987;SDS011;9119;50.932;5.342;2023-04-03T09:17:02;7.90;;;2.50;;
17987;SDS011;9119;50.932;5.342;2023-04-03T09:22:41;5.00;;;2.20;;
17987;SDS011;9119;50.932;5.342;2023-04-03T09:27:41;6.60;;;2.47;;
17987;SDS011;9119;50.932;5.342;2023-04-03T09:30:14;5.97;;;2.10;;
17987;SDS011;9119;50.932;5.342;2023-04-03T09:32:41;6.47;;;2.27;;
17987;SDS011;9119;50.932;5.342;2023-04-03T09:40:35;7.30;;;1.77;;
17987;SDS011;9119;50.932;5.342;2023-04-03T09:45:49;6.27;;;1.90;;
17987;SDS011;9119;50.932;5.342;2023-04-03T09:48:21;4.70;;;2.20;;
17987;SDS011;9119;50.932;5.342;2023-04-03T09:55:51;12.43;;;2.40;;
17987;SDS011;9119;50.932;5.342;2023-04-03T10:00:57;12.17;;;2.67;;
17987;SDS011;9119;50.932;5.342;2023-04-03T10:03:27;11.67;;;2.40;;
17987;SDS011;9119;50.932;5.342;2023-04-03T10:05:55;8.93;;;2.70;;
17987;SDS011;9119;50.932;5.342;2023-04-03T10:08:32;8.30;;;2.20;;
17987;SDS011;9119;50.932;5.342;2023-04-03T10:11:12;5.63;;;2.20;;
17987;SDS011;9119;50.932;5.342;2023-04-03T10:13:50;5.23;;;1.87;;
17987;SDS011;9119;50.932;5.342;2023-04-03T10:16:45;4.00;;;1.90;;
17987;SDS011;9119;50.932;5.342;2023-04-03T10:19:25;4.50;;;1.97;;
17987;SDS011;9119;50.932;5.342;2023-04-03T10:22:02;4.30;;;1.40;;
17987;SDS011;9119;50.932;5.342;2023-04-03T10:25:18;3.03;;;1.40;;
17987;SDS011;9119;50.932;5.342;2023-04-03T10:30:36;8.50;;;1.90;;
17987;SDS011;9119;50.932;5.342;2023-04-03T10:39:00;2.83;;;1.20;;
17987;SDS011;9119;50.932;5.342;2023-04-03T10:42:02;5.07;;;1.60;;
17987;SDS011;9119;50.932;5.342;2023-04-03T10:47:55;8.83;;;1.60;;
17987;SDS011;9119;50.932;5.342;2023-04-03T10:50:37;3.33;;;1.20;;
17987;SDS011;9119;50.932;5.342;2023-04-03T10:58:36;3.60;;;1.23;;
17987;SDS011;9119;50.932;5.342;2023-04-03T11:01:08;3.37;;;1.23;;
17987;SDS011;9119;50.932;5.342;2023-04-03T11:03:47;4.20;;;1.10;;
17987;SDS011;9119;50.932;5.342;2023-04-03T11:06:17;3.27;;;1.10;;
17987;SDS011;9119;50.932;5.342;2023-04-03T11:08:50;4.10;;;1.30;;
17987;SDS011;9119;50.932;5.342;2023-04-03T11:11:26;2.83;;;1.27;;
17987;SDS011;9119;50.932;5.342;2023-04-03T11:14:09;1.00;;;0.90;;
17987;SDS011;9119;50.932;5.342;2023-04-03T11:16:47;1.63;;;1.00;;
17987;SDS011;9119;50.932;5.342;2023-04-03T11:19:20;5.40;;;1.60;;
17987;SDS011;9119;50.932;5.342;2023-04-03T11:22:01;3.27;;;1.07;;
17987;SDS011;9119;50.932;5.342;2023-04-03T11:24:34;4.10;;;1.30;;
17987;SDS011;9119;50.932;5.342;2023-04-03T11:27:04;5.47;;;1.30;;
17987;SDS011;9119;50.932;5.342;2023-04-03T11:29:37;6.37;;;1.20;;
17987;SDS011;9119;50.932;5.342;2023-04-03T11:32:11;6.23;;;1.27;;
17987;SDS011;9119;50.932;5.342;2023-04-03T11:34:47;4.90;;;1.70;;
17987;SDS011;9119;50.932;5.342;2023-04-03T11:37:30;3.73;;;1.20;;
17987;SDS011;9119;50.932;5.342;2023-04-03T11:40:06;6.53;;;1.97;;
17987;SDS011;9119;50.932;5.342;2023-04-03T11:42:40;3.93;;;1.40;;
17987;SDS011;9119;50.932;5.342;2023-04-03T11:50:51;4.50;;;1.30;;
17987;SDS011;9119;50.932;5.342;2023-04-03T11:55:56;5.03;;;1.43;;
17987;SDS011;9119;50.932;5.342;2023-04-03T12:01:06;3.33;;;1.20;;
17987;SDS011;9119;50.932;5.342;2023-04-03T12:21:19;5.93;;;1.27;;
17987;SDS011;9119;50.932;5.342;2023-04-03T12:23:59;6.27;;;1.70;;
17987;SDS011;9119;50.932;5.342;2023-04-03T12:29:15;5.07;;;1.77;;
17987;SDS011;9119;50.932;5.342;2023-04-03T12:32:06;5.23;;;2.10;;
17987;SDS011;9119;50.932;5.342;2023-04-03T12:37:40;4.30;;;1.57;;
17987;SDS011;9119;50.932;5.342;2023-04-03T12:40:26;5.20;;;1.63;;
17987;SDS011;9119;50.932;5.342;2023-04-03T12:45:47;3.20;;;1.43;;
17987;SDS011;9119;50.932;5.342;2023-04-03T12:48:16;4.73;;;1.67;;
17987;SDS011;9119;50.932;5.342;2023-04-03T12:50:45;8.57;;;2.30;;
17987;SDS011;9119;50.932;5.342;2023-04-03T12:53:16;5.93;;;1.80;;
17987;SDS011;9119;50.932;5.342;2023-04-03T12:55:55;4.23;;;1.93;;
17987;SDS011;9119;50.932;5.342;2023-04-03T12:58:26;5.73;;;1.73;;
17987;SDS011;9119;50.932;5.342;2023-04-03T13:01:03;7.03;;;1.80;;
17987;SDS011;9119;50.932;5.342;2023-04-03T13:03:35;6.70;;;1.53;;
17987;SDS011;9119;50.932;5.342;2023-04-03T13:06:03;8.60;;;1.87;;
17987;SDS011;9119;50.932;5.342;2023-04-03T13:08:29;5.47;;;1.70;;
17987;SDS011;9119;50.932;5.342;2023-04-03T13:11:03;4.60;;;1.73;;
17987;SDS011;9119;50.932;5.342;2023-04-03T13:13:29;5.77;;;2.30;;
17987;SDS011;9119;50.932;5.342;2023-04-03T13:15:55;7.17;;;2.00;;
17987;SDS011;9119;50.932;5.342;2023-04-03T13:18:29;7.40;;;2.13;;
17987;SDS011;9119;50.932;5.342;2023-04-03T13:20:59;5.90;;;1.90;;
17987;SDS011;9119;50.932;5.342;2023-04-03T13:23:38;8.43;;;1.97;;
17987;SDS011;9119;50.932;5.342;2023-04-03T13:26:07;3.70;;;1.60;;
17987;SDS011;9119;50.932;5.342;2023-04-03T13:28:34;6.20;;;2.20;;
17987;SDS011;9119;50.932;5.342;2023-04-03T13:36:31;6.53;;;1.93;;
17987;SDS011;9119;50.932;5.342;2023-04-03T13:39:07;6.97;;;2.07;;
17987;SDS011;9119;50.932;5.342;2023-04-03T13:41:50;6.90;;;2.20;;
17987;SDS011;9119;50.932;5.342;2023-04-03T13:46:46;3.33;;;1.90;;
17987;SDS011;9119;50.932;5.342;2023-04-03T13:49:37;4.47;;;2.00;;
17987;SDS011;9119;50.932;5.342;2023-04-03T13:52:25;3.10;;;1.60;;
17987;SDS011;9119;50.932;5.342;2023-04-03T13:54:56;5.70;;;2.00;;
17987;SDS011;9119;50.932;5.342;2023-04-03T13:57:24;4.67;;;2.07;;
17987;SDS011;9119;50.932;5.342;2023-04-03T13:59:50;8.40;;;2.10;;
17987;SDS011;9119;50.932;5.342;2023-04-03T14:04:47;4.50;;;2.00;;
17987;SDS011;9119;50.932;5.342;2023-04-03T14:07:21;8.93;;;2.23;;
17987;SDS011;9119;50.932;5.342;2023-04-03T14:09:47;5.33;;;1.93;;
17987;SDS011;9119;50.932;5.342;2023-04-03T14:14:41;4.20;;;1.83;;
17987;SDS011;9119;50.932;5.342;2023-04-03T14:17:12;4.90;;;2.10;;
17987;SDS011;9119;50.932;5.342;2023-04-03T14:19:41;5.97;;;2.17;;
17987;SDS011;9119;50.932;5.342;2023-04-03T14:22:17;5.17;;;1.73;;
17987;SDS011;9119;50.932;5.342;2023-04-03T14:24:43;7.40;;;1.83;;
17987;SDS011;9119;50.932;5.342;2023-04-03T14:27:20;5.37;;;1.73;;
17987;SDS011;9119;50.932;5.342;2023-04-03T14:29:49;7.60;;;1.70;;
17987;SDS011;9119;50.932;5.342;2023-04-03T14:32:16;4.53;;;1.40;;
17987;SDS011;9119;50.932;5.342;2023-04-03T14:34:44;6.30;;;1.97;;
17987;SDS011;9119;50.932;5.342;2023-04-03T14:37:14;4.93;;;1.63;;
17987;SDS011;9119;50.932;5.342;2023-04-03T14:39:42;9.07;;;2.00;;
17987;SDS011;9119;50.932;5.342;2023-04-03T14:42:13;3.67;;;1.73;;
17987;SDS011;9119;50.932;5.342;2023-04-03T14:44:40;3.93;;;1.80;;
17987;SDS011;9119;50.932;5.342;2023-04-03T14:47:13;5.07;;;2.17;;
17987;SDS011;9119;50.932;5.342;2023-04-03T14:49:41;5.83;;;1.90;;
17987;SDS011;9119;50.932;5.342;2023-04-03T14:52:16;4.07;;;1.67;;
17987;SDS011;9119;50.932;5.342;2023-04-03T14:54:49;11.80;;;2.53;;
17987;SDS011;9119;50.932;5.342;2023-04-03T14:57:15;5.50;;;1.97;;
17987;SDS011;9119;50.932;5.342;2023-04-03T14:59:42;5.27;;;1.80;;
17987;SDS011;9119;50.932;5.342;2023-04-03T15:05:04;9.77;;;2.67;;
17987;SDS011;9119;50.932;5.342;2023-04-03T15:07:53;7.00;;;1.63;;
17987;SDS011;9119;50.932;5.342;2023-04-03T15:10:24;5.37;;;2.20;;
17987;SDS011;9119;50.932;5.342;2023-04-03T15:12:52;7.73;;;2.87;;
17987;SDS011;9119;50.932;5.342;2023-04-03T15:15:20;9.03;;;2.30;;
17987;SDS011;9119;50.932;5.342;2023-04-03T15:17:47;7.40;;;1.90;;
17987;SDS011;9119;50.932;5.342;2023-04-03T15:20:20;3.63;;;1.87;;
17987;SDS011;9119;50.932;5.342;2023-04-03T15:22:48;6.90;;;2.47;;
17987;SDS011;9119;50.932;5.342;2023-04-03T15:25:14;5.70;;;1.73;;
17987;SDS011;9119;50.932;5.342;2023-04-03T15:27:41;4.90;;;2.00;;
17987;SDS011;9119;50.932;5.342;2023-04-03T15:30:08;7.33;;;1.87;;
17987;SDS011;9119;50.932;5.342;2023-04-03T15:32:39;4.03;;;1.90;;
17987;SDS011;9119;50.932;5.342;2023-04-03T15:35:05;4.53;;;1.77;;
17987;SDS011;9119;50.932;5.342;2023-04-03T15:37:31;5.83;;;2.07;;
17987;SDS011;9119;50.932;5.342;2023-04-03T15:39:57;5.03;;;2.00;;
17987;SDS011;9119;50.932;5.342;2023-04-03T15:42:23;6.97;;;2.07;;
17987;SDS011;9119;50.932;5.342;2023-04-03T15:44:48;6.80;;;2.13;;
17987;SDS011;9119;50.932;5.342;2023-04-03T15:47:14;4.13;;;1.80;;
17987;SDS011;9119;50.932;5.342;2023-04-03T15:49:40;5.33;;;2.10;;
17987;SDS011;9119;50.932;5.342;2023-04-03T15:52:06;7.07;;;1.83;;
17987;SDS011;9119;50.932;5.342;2023-04-03T15:54:31;5.33;;;1.83;;
17987;SDS011;9119;50.932;5.342;2023-04-03T15:56:57;4.23;;;1.83;;
17987;SDS011;9119;50.932;5.342;2023-04-03T15:59:23;4.67;;;1.90;;
17987;SDS011;9119;50.932;5.342;2023-04-03T16:01:49;4.30;;;1.53;;
17987;SDS011;9119;50.932;5.342;2023-04-03T16:04:16;3.63;;;1.77;;
17987;SDS011;9119;50.932;5.342;2023-04-03T16:06:42;6.00;;;1.90;;
17987;SDS011;9119;50.932;5.342;2023-04-03T16:09:08;4.20;;;1.80;;
17987;SDS011;9119;50.932;5.342;2023-04-03T16:11:34;3.93;;;1.70;;
17987;SDS011;9119;50.932;5.342;2023-04-03T16:14:02;6.37;;;1.93;;
17987;SDS011;9119;50.932;5.342;2023-04-03T16:16:28;3.83;;;1.70;;
17987;SDS011;9119;50.932;5.342;2023-04-03T16:18:55;5.57;;;1.90;;
17987;SDS011;9119;50.932;5.342;2023-04-03T16:21:21;6.70;;;2.10;;
17987;SDS011;9119;50.932;5.342;2023-04-03T16:23:47;6.83;;;2.00;;
17987;SDS011;9119;50.932;5.342;2023-04-03T16:26:13;5.83;;;2.10;;
17987;SDS011;9119;50.932;5.342;2023-04-03T16:28:39;3.97;;;1.70;;
17987;SDS011;9119;50.932;5.342;2023-04-03T16:31:05;8.20;;;1.70;;
17987;SDS011;9119;50.932;5.342;2023-04-03T16:33:32;6.77;;;2.20;;
17987;SDS011;9119;50.932;5.342;2023-04-03T16:35:58;5.13;;;1.53;;
17987;SDS011;9119;50.932;5.342;2023-04-03T16:38:24;8.97;;;2.00;;
17987;SDS011;9119;50.932;5.342;2023-04-03T16:40:50;4.60;;;2.00;;
17987;SDS011;9119;50.932;5.342;2023-04-03T16:43:17;4.43;;;1.67;;
17987;SDS011;9119;50.932;5.342;2023-04-03T16:45:43;6.10;;;1.73;;
17987;SDS011;9119;50.932;5.342;2023-04-03T16:48:08;3.43;;;1.47;;
17987;SDS011;9119;50.932;5.342;2023-04-03T16:50:35;4.33;;;2.07;;
17987;SDS011;9119;50.932;5.342;2023-04-03T16:53:01;4.97;;;2.00;;
17987;SDS011;9119;50.932;5.342;2023-04-03T16:55:28;8.87;;;1.80;;
17987;SDS011;9119;50.932;5.342;2023-04-03T16:57:53;8.40;;;2.10;;
17987;SDS011;9119;50.932;5.342;2023-04-03T17:00:20;4.63;;;1.40;;